createdAt,value
2018-12-19T11:32:10.412Z,26.30
2018-12-19T11:34:47.548Z,20.33
2018-12-19T11:37:30.644Z,24.80
2018-12-19T11:40:07.420Z,26.20
2018-12-19T11:42:53.077Z,26.62
2018-12-19T11:45:41.886Z,24.80
2018-12-19T11:48:25.197Z,23.77
2018-12-19T11:51:02.388Z,23.87
2018-12-19T11:53:53.349Z,27.07
2018-12-19T11:56:30.066Z,25.60
2018-12-19T11:59:11.348Z,24.30
2018-12-19T12:01:52.052Z,24.73
2018-12-19T12:04:27.208Z,22.93
2018-12-19T12:07:03.785Z,23.20
2018-12-19T12:09:43.806Z,22.77
2018-12-19T12:12:19.248Z,23.18
2018-12-19T12:15:10.031Z,23.50
2018-12-19T12:17:51.526Z,25.13
2018-12-19T12:20:26.527Z,23.90
2018-12-19T12:23:00.666Z,23.73
2018-12-19T12:25:36.653Z,23.27
2018-12-19T12:28:21.158Z,21.50
2018-12-19T12:30:56.315Z,22.93
2018-12-19T12:33:50.804Z,23.77
2018-12-19T12:36:27.583Z,21.70
2018-12-19T12:39:08.279Z,23.27
2018-12-19T12:41:54.591Z,24.45
2018-12-19T12:44:41.874Z,24.92
2018-12-19T12:47:18.599Z,21.43
2018-12-19T12:50:18.178Z,25.17
2018-12-19T12:53:13.340Z,19.40
2018-12-19T12:58:52.700Z,24.60
2018-12-19T13:01:27.110Z,23.18
2018-12-19T13:10:36.419Z,26.23
2018-12-19T13:13:26.576Z,24.93
2018-12-19T13:18:44.665Z,23.50
2018-12-19T13:21:17.509Z,25.70
2018-12-19T13:23:50.487Z,26.73
2018-12-19T13:26:22.726Z,24.63
2018-12-19T13:28:53.415Z,24.47
2018-12-19T13:31:24.032Z,26.33
2018-12-19T13:33:56.088Z,22.33
2018-12-19T13:36:26.785Z,24.57
2018-12-19T13:39:21.898Z,22.40
2018-12-19T13:41:52.646Z,23.87
2018-12-19T13:44:23.311Z,22.60
2018-12-19T13:46:55.034Z,26.12
2018-12-19T13:49:25.934Z,25.77
2018-12-19T13:51:57.692Z,24.43
2018-12-19T13:54:28.502Z,23.87
2018-12-19T13:56:59.215Z,23.27
2018-12-19T13:59:30.068Z,27.43
2018-12-19T14:02:00.836Z,24.07
2018-12-19T14:04:32.395Z,23.27
2018-12-19T14:07:03.212Z,24.67
2018-12-19T14:09:34.379Z,22.93
2018-12-19T14:12:12.149Z,23.53
2018-12-19T14:14:38.859Z,24.93
2018-12-19T14:17:11.807Z,23.10
2018-12-19T14:19:42.569Z,23.98
2018-12-19T14:22:15.490Z,24.85
2018-12-19T14:24:46.227Z,26.17
2018-12-19T14:27:16.931Z,25.47
2018-12-19T14:29:48.680Z,22.82
2018-12-19T14:32:24.899Z,25.05
2018-12-19T14:34:55.527Z,24.63
2018-12-19T14:37:29.546Z,24.50
2018-12-19T14:40:00.235Z,25.93
2018-12-19T14:42:31.106Z,24.73
2018-12-19T14:45:02.456Z,23.57
2018-12-19T14:47:33.323Z,22.37
2018-12-19T14:50:04.230Z,26.48
2018-12-19T14:52:35.067Z,27.27
2018-12-19T14:55:08.163Z,26.00
2018-12-19T14:57:40.172Z,28.60
2018-12-19T15:00:11.872Z,24.67
2018-12-19T15:02:46.721Z,26.17
2018-12-19T15:05:18.049Z,28.60
2018-12-19T15:07:49.054Z,27.60
2018-12-19T15:10:19.964Z,29.80
2018-12-19T15:12:50.684Z,24.10
2018-12-19T15:15:23.096Z,28.73
2018-12-19T15:17:53.848Z,29.50
2018-12-19T15:20:24.411Z,29.67
2018-12-19T15:22:55.781Z,34.33
2018-12-19T15:25:26.353Z,23.70
2018-12-19T15:27:57.166Z,25.77
2018-12-19T15:30:27.924Z,23.00
2018-12-19T15:32:59.198Z,33.43
2018-12-19T15:35:34.125Z,109.83
2018-12-19T15:38:04.930Z,38.30
2018-12-19T15:40:37.795Z,29.18
2018-12-19T15:43:08.990Z,27.07
2018-12-19T15:45:39.689Z,23.18
2018-12-19T15:48:19.375Z,21.17
2018-12-19T15:50:50.765Z,37.08
2018-12-19T15:53:22.876Z,19.70
2018-12-19T15:55:56.432Z,41.13
2018-12-19T15:58:27.561Z,34.90
2018-12-19T16:00:58.384Z,30.70
2018-12-19T16:03:30.241Z,34.57
2018-12-19T16:06:02.313Z,33.90
2018-12-19T16:08:38.533Z,42.40
2018-12-19T16:11:10.700Z,35.17
2018-12-19T16:14:05.323Z,43.40
2018-12-19T16:16:37.299Z,31.60
2018-12-19T16:19:08.229Z,34.08
2018-12-19T16:21:40.191Z,41.30
2018-12-19T16:24:10.995Z,45.80
2018-12-19T16:26:41.664Z,41.55
2018-12-19T16:29:12.433Z,45.03
2018-12-19T16:31:43.318Z,34.67
2018-12-19T16:34:14.107Z,38.63
2018-12-19T16:36:44.999Z,42.33
2018-12-19T16:39:21.574Z,44.47
2018-12-19T16:41:52.295Z,41.08
2018-12-19T16:44:23.467Z,45.30
2018-12-19T16:46:55.577Z,40.03
2018-12-19T16:49:27.859Z,43.03
2018-12-19T16:51:58.680Z,42.90
2018-12-19T16:54:29.766Z,38.00
2018-12-19T16:57:00.455Z,44.27
2018-12-19T16:59:33.135Z,41.10
2018-12-19T17:02:03.770Z,41.83
2018-12-19T17:04:34.425Z,41.37
2018-12-19T17:07:05.540Z,35.80
2018-12-19T17:09:37.543Z,37.48
2018-12-19T17:12:08.416Z,35.13
2018-12-19T17:14:40.114Z,38.50
2018-12-19T17:17:10.911Z,32.67
2018-12-19T17:19:51.229Z,36.97
2018-12-19T17:22:21.894Z,39.27
2018-12-19T17:24:52.646Z,38.20
2018-12-19T17:27:29.455Z,37.60
2018-12-19T17:30:00.089Z,34.10
2018-12-19T17:32:32.433Z,36.17
2018-12-19T17:35:15.454Z,35.85
2018-12-19T17:37:45.984Z,34.63
2018-12-19T17:40:18.189Z,33.75
2018-12-19T17:42:48.775Z,36.17
2018-12-19T17:45:19.496Z,38.23
2018-12-19T17:47:50.036Z,41.25
2018-12-19T17:50:21.704Z,40.95
2018-12-19T17:52:52.651Z,41.05
2018-12-19T17:55:25.259Z,38.98
2018-12-19T17:57:56.465Z,40.23
2018-12-19T18:00:27.305Z,45.28
2018-12-19T18:02:58.160Z,44.43
2018-12-19T18:05:29.077Z,48.65
2018-12-19T18:07:59.628Z,42.67
2018-12-19T18:10:30.135Z,48.67
2018-12-19T18:13:06.552Z,42.30
2018-12-19T18:16:23.526Z,42.30
2018-12-19T18:19:13.717Z,42.27
2018-12-19T18:21:44.382Z,45.20
2018-12-19T18:24:15.056Z,43.70
2018-12-19T18:26:45.622Z,40.55
2018-12-19T18:29:16.361Z,45.15
2018-12-19T18:31:46.908Z,44.05
2018-12-19T18:34:17.871Z,50.80
2018-12-19T18:36:48.554Z,41.13
2018-12-19T18:39:19.164Z,47.40
2018-12-19T18:44:53.895Z,47.27
2018-12-19T18:47:24.798Z,47.23
2018-12-19T18:49:55.363Z,46.02
2018-12-19T18:52:26.098Z,46.83
2018-12-19T18:54:56.837Z,42.03
2018-12-19T18:57:27.596Z,39.40
2018-12-19T18:59:58.494Z,49.13
2018-12-19T19:02:30.205Z,42.83
2018-12-19T19:05:01.174Z,42.98
2018-12-19T19:07:42.374Z,39.55
2018-12-19T19:10:25.807Z,44.27
2018-12-19T19:13:20.534Z,42.27
2018-12-19T19:15:51.313Z,40.38
2018-12-19T19:18:21.909Z,41.73
2018-12-19T19:20:52.731Z,38.28
2018-12-19T19:23:23.606Z,39.92
2018-12-19T19:32:50.176Z,37.47
2018-12-19T19:35:21.189Z,39.07
2018-12-19T19:37:52.330Z,36.20
2018-12-19T19:40:22.879Z,35.60
2018-12-19T19:42:55.131Z,34.23
2018-12-19T19:45:25.878Z,34.03
2018-12-19T19:47:56.666Z,36.43
2018-12-19T19:50:27.397Z,35.30
2018-12-19T20:06:22.432Z,32.33
2018-12-19T20:09:07.534Z,36.77
2018-12-19T20:26:41.646Z,30.80
2018-12-19T20:32:37.475Z,29.42
2018-12-19T20:35:14.243Z,29.50
2018-12-19T20:44:16.951Z,28.47
2018-12-19T20:57:03.599Z,26.77
2018-12-19T21:02:54.237Z,28.80
2018-12-19T21:05:30.716Z,30.63
2018-12-19T21:31:24.003Z,31.47
2018-12-19T21:34:15.349Z,28.23
2018-12-19T21:36:53.197Z,30.43
2018-12-19T21:39:35.387Z,27.02
2018-12-19T21:42:08.431Z,28.80
2018-12-19T21:48:04.597Z,34.20
2018-12-19T21:50:48.051Z,27.93
2018-12-19T21:53:41.112Z,29.15
2018-12-19T21:56:24.206Z,29.70
2018-12-19T22:05:40.907Z,27.33
2018-12-19T22:08:12.717Z,27.62
2018-12-19T22:10:45.015Z,28.40
2018-12-19T22:13:15.941Z,29.60
2018-12-19T22:15:47.009Z,29.87
2018-12-19T22:18:22.752Z,27.87
2018-12-19T22:20:53.576Z,30.20
2018-12-19T22:23:44.849Z,29.63
2018-12-19T22:26:24.536Z,29.20
2018-12-19T22:28:56.588Z,28.50
2018-12-19T22:37:48.547Z,28.62
2018-12-19T22:40:19.995Z,29.05
2018-12-19T22:42:51.047Z,31.53
2018-12-19T22:45:21.795Z,29.03
2018-12-19T22:47:53.153Z,30.70
2018-12-19T22:50:24.020Z,25.82
2018-12-19T22:52:56.632Z,30.08
2018-12-19T22:55:27.255Z,31.00
2018-12-19T22:57:57.964Z,27.17
2018-12-19T23:00:31.850Z,26.52
2018-12-19T23:03:08.653Z,26.73
2018-12-19T23:05:44.457Z,26.75
2018-12-19T23:08:15.340Z,27.17
2018-12-19T23:10:46.233Z,28.02
2018-12-19T23:13:17.580Z,28.10
2018-12-19T23:15:50.252Z,26.93
2018-12-19T23:18:27.841Z,28.65
2018-12-19T23:21:03.761Z,26.63
2018-12-19T23:23:39.896Z,28.57
2018-12-19T23:26:10.079Z,26.87
2018-12-19T23:28:42.665Z,26.57
2018-12-19T23:31:13.599Z,26.30
2018-12-19T23:33:44.465Z,27.63
2018-12-19T23:36:15.257Z,28.55
2018-12-19T23:38:45.879Z,29.03
2018-12-19T23:41:16.680Z,29.03
2018-12-19T23:43:47.465Z,28.35
2018-12-19T23:46:18.119Z,29.48
2018-12-19T23:49:05.721Z,27.53
2018-12-19T23:51:36.440Z,29.25
2018-12-19T23:54:07.175Z,26.73
2018-12-19T23:56:37.743Z,29.07
2018-12-19T23:59:08.852Z,30.35
